Time;durP1;ratioP1;P1;durP2;ratioP2;P2;SDS_P1;SDS_P2;PMS_P1;PMS_P2;Temp;Humidity;BMP_temperature;BMP_pressure;BME280_temperature;BME280_humidity;BME280_pressure;Samples;Min_cycle;Max_cycle;Signal;HPM_P1;HPM_P2
2022/03/05 00:00:49;;;;;;;;;56.50;46.00;;;;;12.42;61.07;101424.91;5026845;28;45585;-74
2022/03/05 00:03:15;;;;;;;;;57.25;46.00;;;;;12.33;60.88;101413.22;5017974;28;45518;-74
2022/03/05 00:05:41;;;;;;;;;58.50;46.00;;;;;12.33;61.37;101413.22;5022625;28;45232;-72
2022/03/05 00:08:07;;;;;;;;;61.00;47.00;;;;;12.15;60.92;101375.75;5019207;28;45855;-74
2022/03/05 00:10:33;;;;;;;;;57.25;45.00;;;;;12.38;60.95;101415.47;5024131;28;45619;-75
2022/03/05 00:12:59;;;;;;;;;58.75;47.00;;;;;12.21;61.52;101398.31;5016613;28;45213;-75
2022/03/05 00:15:25;;;;;;;;;57.25;45.75;;;;;12.02;62.61;101409.84;5019310;28;45655;-72
2022/03/05 00:17:52;;;;;;;;;65.50;49.25;;;;;11.99;62.64;101395.91;5020872;28;45653;-73
2022/03/05 00:20:18;;;;;;;;;56.75;46.50;;;;;12.21;61.73;101417.00;5021745;28;45660;-73
2022/03/05 00:22:46;;;;;;;;;55.50;44.25;;;;;12.26;61.97;101408.59;5025435;28;45535;-73
2022/03/05 00:25:12;;;;;;;;;57.00;46.75;;;;;12.21;61.48;101392.16;5024182;28;45363;-73
2022/03/05 00:27:37;;;;;;;;;50.50;39.50;;;;;12.20;61.82;101407.31;5036847;28;47339;-71
2022/03/05 00:30:03;;;;;;;;;55.25;44.75;;;;;12.08;61.94;101390.63;5033939;28;45178;-74
2022/03/05 00:32:29;;;;;;;;;56.75;45.50;;;;;11.60;62.11;101329.19;5027164;28;45563;-73
2022/03/05 00:34:55;;;;;;;;;53.75;43.25;;;;;11.80;62.94;101394.88;5031649;28;45518;-71
2022/03/05 00:37:21;;;;;;;;;61.50;46.50;;;;;11.79;63.48;101406.53;5022002;28;45573;-71
2022/03/05 00:39:46;;;;;;;;;58.00;45.00;;;;;11.71;63.32;101387.69;5019833;28;45549;-71
2022/03/05 00:42:11;;;;;;;;;57.75;45.00;;;;;11.70;63.24;101383.34;5020159;28;45814;-72
2022/03/05 00:44:37;;;;;;;;;57.75;45.25;;;;;11.73;63.80;101404.38;5019932;28;45321;-74
2022/03/05 00:47:02;;;;;;;;;59.75;46.00;;;;;11.65;63.77;101395.38;5019742;28;45503;-72
2022/03/05 00:49:28;;;;;;;;;53.50;43.50;;;;;11.10;63.50;101291.91;5019591;28;45441;-71
2022/03/05 00:51:53;;;;;;;;;54.25;44.25;;;;;11.38;63.44;101335.56;5022797;28;45515;-71
2022/03/05 00:54:19;;;;;;;;;58.00;47.00;;;;;11.51;64.00;101372.63;5026695;28;45376;-76
2022/03/05 00:56:45;;;;;;;;;53.25;44.00;;;;;11.51;64.02;101383.28;5023078;28;45624;-72
2022/03/05 00:59:10;;;;;;;;;53.75;45.25;;;;;11.54;64.52;101409.63;5028746;28;45391;-70
2022/03/05 01:01:36;;;;;;;;;57.25;44.75;;;;;11.33;64.85;101403.50;5024742;28;45431;-70
2022/03/05 01:04:01;;;;;;;;;46.00;37.50;;;;;11.18;65.29;101393.19;5025650;28;45325;-73
2022/03/05 01:06:27;;;;;;;;;50.50;38.75;;;;;11.11;65.34;101383.22;5036134;28;46011;-73
2022/03/05 01:08:53;;;;;;;;;48.00;37.50;;;;;11.24;65.25;101406.00;5026112;28;45388;-72
2022/03/05 01:11:18;;;;;;;;;53.00;43.00;;;;;11.14;65.22;101402.44;5026114;28;45201;-72
2022/03/05 01:13:44;;;;;;;;;55.25;45.00;;;;;10.99;65.22;101382.44;5026489;28;45626;-73
2022/03/05 01:16:10;;;;;;;;;58.25;45.00;;;;;11.05;65.41;101402.38;5034673;28;47694;-73
2022/03/05 01:18:35;;;;;;;;;55.25;44.50;;;;;10.95;65.50;101384.53;5035220;28;45260;-72
2022/03/05 01:21:01;;;;;;;;;55.00;44.25;;;;;10.98;65.39;101408.22;5024062;28;45303;-71
2022/03/05 01:23:27;;;;;;;;;54.25;41.75;;;;;10.94;65.71;101401.47;5022135;28;45482;-72
2022/03/05 01:25:52;;;;;;;;;58.75;44.75;;;;;11.04;65.40;101398.88;5023499;28;47469;-74
2022/03/05 01:28:17;;;;;;;;;58.75;44.75;;;;;11.07;65.07;101400.44;5027325;28;45504;-72
2022/03/05 01:30:43;;;;;;;;;56.00;43.50;;;;;10.71;64.35;101341.41;5026599;28;45925;-72
2022/03/05 01:33:08;;;;;;;;;53.50;43.00;;;;;10.42;64.76;101290.72;5024820;28;45442;-72
2022/03/05 01:35:34;;;;;;;;;54.50;42.75;;;;;10.90;64.98;101384.09;5030114;28;48354;-72
2022/03/05 01:37:59;;;;;;;;;53.00;42.50;;;;;10.39;65.67;101317.53;5030314;28;45522;-71
2022/03/05 01:40:24;;;;;;;;;54.00;42.25;;;;;10.80;65.03;101377.00;5025649;28;45289;-73
2022/03/05 01:42:50;;;;;;;;;53.50;42.00;;;;;10.86;65.04;101395.13;5027481;28;45595;-72
2022/03/05 01:45:16;;;;;;;;;55.00;43.50;;;;;10.80;65.56;101392.97;5028203;28;46399;-71
2022/03/05 01:47:41;;;;;;;;;52.00;42.25;;;;;10.49;65.43;101344.19;5020501;28;45582;-73
2022/03/05 01:50:08;;;;;;;;;55.25;42.25;;;;;10.72;65.54;101390.13;5025165;28;45510;-74
2022/03/05 01:52:34;;;;;;;;;53.75;42.00;;;;;10.73;65.25;101386.47;5018944;28;45252;-73
2022/03/05 01:54:59;;;;;;;;;54.50;43.50;;;;;10.69;65.34;101382.41;5018596;28;47448;-71
2022/03/05 01:57:25;;;;;;;;;52.75;42.25;;;;;10.90;65.15;101399.22;5018739;28;45301;-73
2022/03/05 01:59:50;;;;;;;;;51.75;42.50;;;;;10.87;64.89;101375.53;5027305;28;45480;-73
2022/03/05 02:02:17;;;;;;;;;56.50;43.25;;;;;11.03;64.94;101404.34;5025934;28;45660;-71
2022/03/05 02:04:43;;;;;;;;;51.75;39.50;;;;;10.85;64.86;101378.31;5026442;28;45706;-73
2022/03/05 02:07:09;;;;;;;;;45.25;37.50;;;;;10.94;65.25;101396.16;5026339;28;45625;-72
2022/03/05 02:09:35;;;;;;;;;50.50;42.75;;;;;10.90;64.46;101388.56;5027356;28;45279;-70
2022/03/05 02:12:00;;;;;;;;;47.25;39.00;;;;;10.94;64.55;101405.94;5026607;28;45355;-73
2022/03/05 02:14:25;;;;;;;;;48.50;39.00;;;;;10.75;64.37;101363.25;5025897;28;48094;-72
2022/03/05 02:16:51;;;;;;;;;53.00;40.75;;;;;10.73;64.62;101358.06;5039404;28;45802;-72
2022/03/05 02:19:17;;;;;;;;;51.50;41.75;;;;;10.77;65.06;101377.25;5029373;28;45364;-73
2022/03/05 02:21:44;;;;;;;;;48.00;39.00;;;;;10.84;64.47;101383.78;5031780;28;45334;-74
2022/03/05 02:24:10;;;;;;;;;53.75;43.00;;;;;10.83;64.35;101376.78;5017309;28;48708;-72
2022/03/05 02:26:36;;;;;;;;;55.33;43.67;;;;;10.75;65.17;101374.75;5034132;28;45534;-72
2022/03/05 02:29:01;;;;;;;;;48.50;39.75;;;;;10.66;64.32;101359.56;5021153;28;45503;-71
2022/03/05 02:31:27;;;;;;;;;49.25;40.75;;;;;10.88;64.72;101395.84;5026844;28;45450;-73
2022/03/05 02:33:52;;;;;;;;;51.75;42.25;;;;;10.78;64.84;101374.47;5017823;28;46409;-71
2022/03/05 02:36:21;;;;;;;;;49.25;40.50;;;;;10.29;64.52;101298.88;5042193;28;46172;-73
2022/03/05 02:38:47;;;;;;;;;53.50;43.00;;;;;10.75;64.52;101389.84;5036417;28;45525;-73
2022/03/05 02:41:12;;;;;;;;;46.00;37.50;;;;;10.63;65.22;101387.28;5019928;28;45518;-74
2022/03/05 02:43:37;;;;;;;;;52.50;40.25;;;;;10.75;64.76;101385.38;5025265;28;46570;-73
2022/03/05 02:46:03;;;;;;;;;46.75;37.00;;;;;10.77;64.91;101377.25;5031755;28;45919;-73
2022/03/05 02:48:29;;;;;;;;;53.50;39.25;;;;;10.79;64.74;101370.00;5026557;28;45346;-72
2022/03/05 02:50:55;;;;;;;;;53.50;41.75;;;;;10.80;64.37;101369.03;5022604;28;45435;-74
2022/03/05 02:53:20;;;;;;;;;53.50;42.00;;;;;10.77;64.25;101350.66;5019961;28;48715;-71
2022/03/05 02:55:47;;;;;;;;;48.25;37.25;;;;;10.61;64.14;101325.41;5043059;28;45465;-74
2022/03/05 02:58:12;;;;;;;;;52.50;42.75;;;;;10.98;63.54;101380.75;5023778;28;45506;-73
2022/03/05 03:00:38;;;;;;;;;46.75;36.75;;;;;10.92;64.05;101383.97;5024320;28;45661;-71
2022/03/05 03:03:03;;;;;;;;;48.50;40.00;;;;;10.83;64.83;101371.44;5017168;28;48773;-73
2022/03/05 03:05:29;;;;;;;;;50.50;39.25;;;;;10.84;64.35;101379.31;5019626;28;46174;-73
2022/03/05 03:07:54;;;;;;;;;46.75;39.75;;;;;10.78;64.56;101369.16;5020083;28;45593;-71
2022/03/05 03:10:21;;;;;;;;;48.25;37.25;;;;;10.61;64.83;101362.63;5030704;28;45312;-73
2022/03/05 03:12:46;;;;;;;;;48.75;38.00;;;;;10.59;64.31;101355.72;5037955;28;48945;-71
2022/03/05 03:15:13;;;;;;;;;44.50;36.25;;;;;10.75;64.72;101380.06;5015978;28;45519;-73
2022/03/05 03:17:41;;;;;;;;;44.75;37.00;;;;;10.62;64.97;101369.63;5021935;28;45469;-72
2022/03/05 03:20:07;;;;;;;;;47.75;38.50;;;;;10.57;65.06;101374.47;5032556;28;45420;-73
2022/03/05 03:22:32;;;;;;;;;45.75;36.75;;;;;10.55;65.24;101375.56;5023824;28;46565;-72
2022/03/05 03:24:57;;;;;;;;;42.00;34.25;;;;;10.01;65.14;101284.34;5025716;28;45529;-73
2022/03/05 03:27:23;;;;;;;;;49.75;40.00;;;;;10.41;65.22;101355.47;5017294;28;45295;-72
2022/03/05 03:29:51;;;;;;;;;46.00;37.00;;;;;10.23;65.60;101347.22;5017431;28;45171;-74
2022/03/05 03:32:16;;;;;;;;;49.25;39.00;;;;;10.25;65.57;101347.94;5016998;28;45292;-72
2022/03/05 03:34:41;;;;;;;;;47.25;38.25;;;;;10.33;65.69;101372.03;5023776;28;45407;-74
2022/03/05 03:37:07;;;;;;;;;50.50;40.00;;;;;10.34;65.67;101381.72;5020418;28;45559;-72
2022/03/05 03:39:32;;;;;;;;;43.33;37.33;;;;;10.38;65.43;101371.66;5020733;28;45677;-70
2022/03/05 03:41:57;;;;;;;;;47.75;39.50;;;;;10.36;64.96;101355.00;5020691;28;45582;-72
2022/03/05 03:44:23;;;;;;;;;45.67;38.00;;;;;10.33;65.57;101363.22;5017413;28;45225;-71
2022/03/05 03:46:48;;;;;;;;;53.00;42.75;;;;;10.26;65.42;101362.06;5030289;28;45506;-72
2022/03/05 03:49:14;;;;;;;;;50.00;40.00;;;;;10.28;66.02;101384.88;5031802;28;45300;-72
2022/03/05 03:51:39;;;;;;;;;47.25;37.75;;;;;10.11;65.86;101357.97;5034170;28;46583;-71
2022/03/05 03:54:04;;;;;;;;;44.75;38.00;;;;;10.20;65.93;101359.84;5030789;28;45174;-72
2022/03/05 03:56:30;;;;;;;;;46.75;39.75;;;;;10.20;66.04;101379.31;5017086;28;45571;-72
2022/03/05 03:58:55;;;;;;;;;53.00;43.25;;;;;10.16;66.38;101382.34;5036670;28;45473;-72
2022/03/05 04:01:20;;;;;;;;;50.75;40.00;;;;;10.14;66.23;101378.97;5019758;28;47343;-72
2022/03/05 04:03:46;;;;;;;;;44.67;37.00;;;;;10.27;66.53;101382.34;5016866;28;45291;-72
2022/03/05 04:06:11;;;;;;;;;48.50;40.00;;;;;10.16;66.00;101356.63;5028005;28;45276;-74
2022/03/05 04:08:42;;;;;;;;;54.00;42.50;;;;;10.22;65.73;101357.97;5018734;28;45504;-73
2022/03/05 04:11:19;;;;;;;;;47.33;36.33;;;;;10.28;65.78;101381.38;5016583;28;46694;-72
2022/03/05 04:13:47;;;;;;;;;51.00;36.50;;;;;10.23;65.81;101367.63;5014999;28;45460;-72
2022/03/05 04:16:13;;;;;;;;;49.33;37.67;;;;;10.33;65.88;101384.50;5028067;28;45333;-74
2022/03/05 04:18:39;;;;;;;;;44.00;36.00;;;;;9.73;65.75;101275.16;5019227;28;45312;-73
2022/03/05 04:21:06;;;;;;;;;34.33;30.67;;;;;10.28;65.70;101376.91;5024301;28;46433;-71
2022/03/05 04:23:32;;;;;;;;;46.75;39.75;;;;;10.30;66.23;101368.81;5021651;28;45477;-70
2022/03/05 04:25:57;;;;;;;;;45.00;38.50;;;;;10.34;65.96;101376.38;5017966;28;45206;-73
2022/03/05 04:28:23;;;;;;;;;47.50;38.00;;;;;10.28;65.95;101376.06;5019541;28;45521;-71
2022/03/05 04:30:48;;;;;;;;;50.50;40.00;;;;;9.99;66.19;101334.09;5026046;28;46377;-72
2022/03/05 04:33:14;;;;;;;;;48.50;38.00;;;;;10.29;66.03;101383.06;5033734;28;45557;-73
2022/03/05 04:35:39;;;;;;;;;48.25;39.75;;;;;10.25;66.23;101377.16;5029607;28;45493;-73
2022/03/05 04:38:04;;;;;;;;;50.50;41.25;;;;;10.22;66.03;101382.72;5016713;28;45324;-72
2022/03/05 04:40:30;;;;;;;;;51.50;40.50;;;;;10.29;65.92;101383.06;5024813;28;45327;-73
2022/03/05 04:42:56;;;;;;;;;52.00;44.25;;;;;10.29;65.94;101375.09;5016153;28;45291;-71
2022/03/05 04:45:21;;;;;;;;;42.33;36.00;;;;;10.36;66.03;101392.22;5024041;28;45507;-71
2022/03/05 04:47:47;;;;;;;;;49.25;41.00;;;;;10.38;65.73;101384.09;5027126;28;45523;-72
2022/03/05 04:50:12;;;;;;;;;51.00;43.00;;;;;10.26;65.39;101372.69;5015721;28;46495;-71
2022/03/05 04:52:38;;;;;;;;;50.00;40.50;;;;;9.87;65.80;101318.31;5014725;28;45414;-73
2022/03/05 04:55:05;;;;;;;;;50.25;38.00;;;;;9.92;66.59;101346.19;5016385;28;45257;-71
2022/03/05 04:57:31;;;;;;;;;52.75;41.50;;;;;10.20;66.06;101389.94;5016295;28;45634;-72
2022/03/05 04:59:57;;;;;;;;;48.25;39.00;;;;;10.29;65.58;101396.34;5016459;28;47260;-72
2022/03/05 05:02:22;;;;;;;;;49.25;40.00;;;;;10.30;65.73;101379.44;5022021;28;45513;-70
2022/03/05 05:04:48;;;;;;;;;49.50;40.50;;;;;10.30;65.29;101390.91;5030976;28;45289;-73
2022/03/05 05:07:13;;;;;;;;;50.00;41.00;;;;;10.28;65.64;101402.63;5025427;28;45229;-72
2022/03/05 05:09:40;;;;;;;;;50.00;41.75;;;;;10.12;65.34;101362.31;5024145;28;45628;-73
2022/03/05 05:12:06;;;;;;;;;48.25;40.00;;;;;10.34;65.34;101384.38;5019429;28;45293;-72
2022/03/05 05:14:31;;;;;;;;;50.75;41.00;;;;;10.37;65.45;101380.59;5034211;28;45349;-72
2022/03/05 05:16:57;;;;;;;;;30.75;30.25;;;;;10.27;65.09;101377.03;5020314;28;45319;-72
2022/03/05 05:19:25;;;;;;;;;50.50;41.00;;;;;10.29;65.30;101383.06;5019807;28;46280;-75
2022/03/05 05:21:56;;;;;;;;;50.00;38.50;;;;;10.40;65.13;101385.66;5019427;28;45351;-72
2022/03/05 05:24:23;;;;;;;;;44.33;37.67;;;;;10.00;64.33;101297.75;5017800;28;45403;-72
2022/03/05 05:26:48;;;;;;;;;53.75;43.25;;;;;10.56;64.36;101402.03;5029260;28;45499;-72
2022/03/05 05:29:14;;;;;;;;;51.25;41.25;;;;;10.55;64.36;101383.53;5033974;28;45422;-72
2022/03/05 05:31:39;;;;;;;;;49.00;39.25;;;;;10.58;64.11;101400.09;5020327;28;45908;-71
2022/03/05 05:34:04;;;;;;;;;72.00;55.50;;;;;10.55;64.07;101397.69;5029584;28;45258;-71
2022/03/05 05:36:30;;;;;;;;;44.75;37.25;;;;;10.65;64.11;101411.91;5029094;28;45541;-72
2022/03/05 05:38:55;;;;;;;;;50.50;40.50;;;;;10.61;64.25;101393.66;5024987;28;47666;-71
2022/03/05 05:41:21;;;;;;;;;48.75;40.00;;;;;10.83;63.46;101406.88;5033811;28;45380;-72
2022/03/05 05:43:46;;;;;;;;;50.75;38.50;;;;;10.83;63.19;101404.22;5018834;28;45499;-71
2022/03/05 05:46:12;;;;;;;;;47.00;39.00;;;;;10.87;62.85;101404.78;5025246;28;45515;-72
2022/03/05 05:48:37;;;;;;;;;51.50;41.25;;;;;9.96;63.04;101265.28;5016885;28;47499;-73
2022/03/05 05:51:03;;;;;;;;;54.00;38.75;;;;;10.76;63.00;101391.53;5018675;28;45486;-72
2022/03/05 05:53:29;;;;;;;;;50.00;41.50;;;;;10.76;62.83;101412.81;5033584;28;45302;-72
2022/03/05 05:55:55;;;;;;;;;49.50;39.00;;;;;10.72;63.23;101411.41;5019425;28;45327;-72
2022/03/05 05:58:20;;;;;;;;;48.25;37.25;;;;;10.74;63.43;101414.75;5021285;28;46085;-72
2022/03/05 06:00:50;;;;;;;;;48.75;40.00;;;;;10.55;63.84;101418.97;5018656;28;45406;-71
2022/03/05 06:03:16;;;;;;;;;39.00;34.00;;;;;10.27;64.06;101393.81;5022955;28;45486;-72
2022/03/05 06:05:41;;;;;;;;;48.50;40.50;;;;;10.45;63.72;101420.69;5026163;28;45273;-73
2022/03/05 06:08:07;;;;;;;;;48.75;40.50;;;;;10.43;64.01;101414.69;5018552;28;46174;-73
2022/03/05 06:10:32;;;;;;;;;50.00;41.25;;;;;9.96;64.18;101333.50;5018285;28;45489;-73
2022/03/05 06:12:57;;;;;;;;;50.25;41.50;;;;;10.27;63.99;101372.56;5022060;28;46608;-73
2022/03/05 06:15:24;;;;;;;;;49.25;40.00;;;;;10.63;63.74;101428.97;5026476;28;45347;-73
2022/03/05 06:17:54;;;;;;;;;47.00;37.25;;;;;10.56;63.48;101402.03;5018193;28;45926;-72
2022/03/05 06:20:20;;;;;;;;;47.00;38.25;;;;;10.59;63.64;101391.13;5026778;28;45470;-71
2022/03/05 06:22:48;;;;;;;;;56.25;43.50;;;;;10.74;63.08;101414.75;5016975;28;45466;-73
2022/03/05 06:25:14;;;;;;;;;46.50;37.00;;;;;10.81;63.14;101416.81;5035949;28;45633;-71
2022/03/05 06:27:39;;;;;;;;;45.25;37.75;;;;;10.84;62.81;101411.22;5032845;28;45677;-72
2022/03/05 06:30:05;;;;;;;;;50.00;40.75;;;;;10.99;62.52;101419.69;5027617;28;45528;-70
2022/03/05 06:32:31;;;;;;;;;48.50;40.25;;;;;10.93;62.46;101399.78;5021064;28;45602;-71
2022/03/05 06:34:56;;;;;;;;;52.50;40.00;;;;;11.12;62.42;101432.81;5033644;28;45661;-72
2022/03/05 06:37:22;;;;;;;;;51.50;38.75;;;;;11.06;62.70;101426.19;5018527;28;48269;-71
2022/03/05 06:39:48;;;;;;;;;50.50;37.75;;;;;11.08;62.60;101429.56;5022954;28;45359;-73
2022/03/05 06:42:14;;;;;;;;;51.00;41.25;;;;;11.09;62.33;101430.41;5017795;28;45301;-71
2022/03/05 06:44:40;;;;;;;;;49.25;42.00;;;;;10.86;62.39;101392.47;5036280;28;45513;-72
2022/03/05 06:47:06;;;;;;;;;55.00;42.75;;;;;11.13;62.59;101445.97;5019901;28;47670;-72
2022/03/05 06:49:31;;;;;;;;;52.75;41.00;;;;;11.08;62.67;101415.44;5024245;28;45331;-71
2022/03/05 06:51:58;;;;;;;;;50.00;41.33;;;;;11.00;62.57;101410.75;5031561;28;45352;-72
2022/03/05 06:54:24;;;;;;;;;52.50;41.25;;;;;11.02;62.41;101424.78;5026214;28;45293;-73
2022/03/05 06:56:49;;;;;;;;;50.00;39.67;;;;;11.12;62.33;101436.31;5026247;28;46161;-73
2022/03/05 06:59:14;;;;;;;;;55.25;42.50;;;;;11.18;62.27;101442.94;5017095;28;45512;-73
2022/03/05 07:01:40;;;;;;;;;52.00;42.25;;;;;10.58;61.77;101352.22;5016778;28;45513;-72
2022/03/05 07:04:05;;;;;;;;;53.00;43.00;;;;;11.03;61.78;101431.78;5029969;28;45347;-71
2022/03/05 07:06:31;;;;;;;;;51.00;42.00;;;;;11.18;60.55;101448.25;5018646;28;46077;-72
2022/03/05 07:08:57;;;;;;;;;48.25;39.50;;;;;11.14;60.79;101447.66;5016456;28;45398;-72
2022/03/05 07:11:22;;;;;;;;;54.25;43.75;;;;;11.00;59.05;101415.22;5023741;28;45571;-73
2022/03/05 07:13:48;;;;;;;;;49.75;41.00;;;;;11.21;59.70;101462.16;5024864;28;45186;-72
2022/03/05 07:16:13;;;;;;;;;54.75;43.00;;;;;11.13;59.48;101459.28;5032462;28;46251;-74
2022/03/05 07:18:40;;;;;;;;;54.00;42.00;;;;;11.00;60.60;101448.00;5024242;28;51764;-72
2022/03/05 07:21:05;;;;;;;;;49.75;40.75;;;;;10.96;60.65;101452.72;5023713;28;45445;-74
2022/03/05 07:23:31;;;;;;;;;55.00;44.00;;;;;10.96;61.14;101458.06;5024454;28;45514;-74
2022/03/05 07:25:56;;;;;;;;;53.00;44.00;;;;;11.03;61.07;101469.03;5016934;28;46451;-72
2022/03/05 07:28:22;;;;;;;;;52.75;43.00;;;;;10.65;61.71;101445.63;5016573;28;45321;-73
2022/03/05 07:30:47;;;;;;;;;53.25;42.25;;;;;10.74;61.49;101436.03;5019280;28;45249;-75
2022/03/05 07:33:13;;;;;;;;;51.75;43.75;;;;;11.01;61.64;101470.97;5017348;28;45513;-72
2022/03/05 07:35:39;;;;;;;;;56.50;45.25;;;;;11.08;61.27;101482.78;5021317;28;46999;-75
2022/03/05 07:38:04;;;;;;;;;52.25;42.50;;;;;11.11;61.30;101479.03;5020662;28;45183;-72
2022/03/05 07:40:30;;;;;;;;;55.50;43.25;;;;;10.90;61.06;101441.78;5016506;28;45245;-74
2022/03/05 07:42:55;;;;;;;;;41.75;33.00;;;;;10.94;61.40;101467.13;5022033;28;45249;-74
2022/03/05 07:45:20;;;;;;;;;51.75;40.75;;;;;10.98;61.25;101482.72;5015261;28;47848;-71
2022/03/05 07:47:46;;;;;;;;;52.00;43.00;;;;;10.88;61.62;101473.81;5032558;28;45456;-74
2022/03/05 07:50:12;;;;;;;;;55.75;43.00;;;;;10.96;62.20;101483.81;5024433;28;45269;-72
2022/03/05 07:52:37;;;;;;;;;55.25;43.50;;;;;10.92;62.09;101493.03;5020280;28;45463;-74
2022/03/05 07:55:06;;;;;;;;;50.50;41.75;;;;;10.78;62.70;101470.22;5022404;28;45519;-71
2022/03/05 07:57:32;;;;;;;;;50.33;41.67;;;;;10.79;62.10;101477.22;5020387;28;45521;-72
2022/03/05 07:59:58;;;;;;;;;48.00;40.33;;;;;10.65;62.59;101454.47;5031119;28;45455;-71
2022/03/05 08:02:23;;;;;;;;;49.75;41.00;;;;;10.69;62.57;101470.16;5029961;28;45311;-72
2022/03/05 08:04:49;;;;;;;;;52.75;40.25;;;;;10.91;62.94;101494.00;5030678;28;48567;-72
2022/03/05 08:07:16;;;;;;;;;54.50;41.50;;;;;10.97;62.52;101485.50;5024842;28;45517;-71
2022/03/05 08:09:43;;;;;;;;;49.75;40.25;;;;;10.89;62.41;101482.66;5032297;28;45472;-72
2022/03/05 08:12:10;;;;;;;;;41.67;35.00;;;;;10.84;62.99;101496.34;5030293;28;45462;-74
2022/03/05 08:14:39;;;;;;;;;49.50;39.00;;;;;10.83;63.33;101493.81;5034608;28;49016;-74
2022/03/05 08:17:05;;;;;;;;;46.75;37.00;;;;;10.57;63.34;101443.59;5022642;28;46154;-73
2022/03/05 08:19:31;;;;;;;;;48.50;40.00;;;;;10.88;63.30;101497.75;5019664;28;45339;-74
2022/03/05 08:21:56;;;;;;;;;46.00;36.25;;;;;10.93;62.87;101506.19;5021830;28;45347;-73
2022/03/05 08:24:21;;;;;;;;;45.50;35.50;;;;;10.86;62.84;101520.16;5022467;28;46554;-75
2022/03/05 08:26:47;;;;;;;;;45.50;39.50;;;;;10.41;63.05;101459.16;5019646;28;45328;-73
2022/03/05 08:29:13;;;;;;;;;52.33;40.00;;;;;10.35;63.36;101441.88;5016499;28;45580;-71
2022/03/05 08:31:38;;;;;;;;;48.00;40.00;;;;;10.90;63.21;101510.94;5024198;28;45443;-71
2022/03/05 08:34:04;;;;;;;;;51.75;39.75;;;;;10.97;62.94;101485.50;5035734;28;46776;-70
2022/03/05 08:36:30;;;;;;;;;52.75;41.25;;;;;10.59;62.74;101417.72;5024129;28;45346;-71
2022/03/05 08:38:56;;;;;;;;;48.00;38.25;;;;;11.21;62.04;101494.09;5016271;28;45426;-71
2022/03/05 08:41:22;;;;;;;;;53.75;43.00;;;;;11.18;61.41;101467.72;5018878;28;45490;-68
2022/03/05 08:43:48;;;;;;;;;51.50;41.75;;;;;11.16;61.25;101451.03;5030639;28;46516;-71
2022/03/05 08:46:13;;;;;;;;;47.00;37.00;;;;;11.40;60.86;101468.53;5028392;28;45534;-70
2022/03/05 08:48:39;;;;;;;;;50.25;39.75;;;;;11.53;61.00;101487.84;5031278;28;45395;-70
2022/03/05 08:51:04;;;;;;;;;48.75;39.75;;;;;11.57;60.14;101458.13;5033426;28;45295;-71
2022/03/05 08:53:30;;;;;;;;;47.00;38.00;;;;;11.57;60.25;101457.28;5023197;28;45545;-71
2022/03/05 08:55:56;;;;;;;;;52.50;42.50;;;;;11.74;59.79;101485.97;5034479;28;45270;-71
2022/03/05 08:58:22;;;;;;;;;50.50;42.75;;;;;10.99;59.70;101339.88;5043855;28;45480;-72
2022/03/05 09:00:49;;;;;;;;;53.00;43.25;;;;;11.87;58.84;101480.47;5023999;28;45350;-72
2022/03/05 09:03:15;;;;;;;;;50.00;39.50;;;;;12.08;59.07;101509.72;5022209;28;48604;-72
2022/03/05 09:05:41;;;;;;;;;52.50;41.25;;;;;11.93;59.19;101457.75;5031960;28;45375;-70
2022/03/05 09:08:06;;;;;;;;;60.75;48.25;;;;;12.35;58.13;101507.25;5030544;28;45349;-72
2022/03/05 09:10:32;;;;;;;;;51.50;42.75;;;;;12.31;58.20;101487.19;5023637;28;45424;-73
2022/03/05 09:12:58;;;;;;;;;55.75;42.75;;;;;12.33;58.26;101482.56;5030150;28;47007;-76
2022/03/05 09:15:23;;;;;;;;;49.00;39.75;;;;;12.39;57.56;101502.47;5019138;28;45470;-73
2022/03/05 09:17:49;;;;;;;;;51.00;41.75;;;;;12.44;57.17;101506.44;5030363;28;45453;-75
2022/03/05 09:20:15;;;;;;;;;49.75;42.00;;;;;12.07;57.03;101431.56;5043067;28;46168;-72
2022/03/05 09:22:41;;;;;;;;;51.00;40.50;;;;;12.39;56.64;101476.66;5024468;28;46461;-74
2022/03/05 09:25:06;;;;;;;;;48.50;39.25;;;;;12.66;57.00;101499.19;5020976;28;45421;-73
2022/03/05 09:27:33;;;;;;;;;53.75;42.75;;;;;12.79;56.32;101494.41;5026734;28;45480;-73
2022/03/05 09:29:59;;;;;;;;;46.50;39.50;;;;;12.55;56.07;101427.28;5031941;28;45633;-74
2022/03/05 09:32:24;;;;;;;;;52.50;42.75;;;;;13.05;55.57;101490.19;5033746;28;47613;-73
2022/03/05 09:34:50;;;;;;;;;54.25;45.00;;;;;12.64;54.87;101421.13;5036484;28;45503;-74
2022/03/05 09:37:15;;;;;;;;;52.25;41.50;;;;;13.09;54.82;101491.59;5028527;28;46543;-76
2022/03/05 09:39:41;;;;;;;;;49.75;40.00;;;;;13.28;55.36;101506.78;5025082;28;45583;-72
2022/03/05 09:42:08;;;;;;;;;55.00;42.75;;;;;13.44;54.08;101510.69;5027610;28;45863;-73
2022/03/05 09:44:34;;;;;;;;;51.00;42.25;;;;;13.23;54.34;101473.50;5026262;28;45684;-80
2022/03/05 09:47:02;;;;;;;;;51.25;41.50;;;;;13.53;54.19;101488.44;5038398;28;45534;-73
2022/03/05 09:49:28;;;;;;;;;46.25;39.25;;;;;13.70;52.94;101475.16;5025324;28;45420;-73
2022/03/05 09:51:54;;;;;;;;;52.50;42.75;;;;;13.93;51.86;101496.19;5023486;28;45456;-72
2022/03/05 09:54:20;;;;;;;;;55.00;43.75;;;;;14.05;52.48;101496.84;5026084;28;45602;-73
2022/03/05 09:56:46;;;;;;;;;51.50;41.75;;;;;14.09;52.02;101488.38;5024946;28;45479;-75
2022/03/05 09:59:12;;;;;;;;;51.75;41.75;;;;;14.34;51.50;101478.78;5042559;28;45878;-79
2022/03/05 10:01:39;;;;;;;;;51.50;41.50;;;;;14.66;51.60;101478.31;5020078;28;46923;-75
2022/03/05 10:04:04;;;;;;;;;54.50;45.00;;;;;14.94;50.14;101467.50;5037769;28;45517;-76
2022/03/05 10:06:30;;;;;;;;;54.75;44.75;;;;;15.35;48.86;101493.63;5037311;28;45376;-73
2022/03/05 10:08:56;;;;;;;;;45.50;40.25;;;;;15.27;47.86;101477.50;5031345;28;45496;-72
2022/03/05 10:11:39;;;;;;;;;53.75;45.25;;;;;15.46;47.86;101493.38;5035559;28;48792;-74
2022/03/05 10:14:15;;;;;;;;;56.50;44.75;;;;;15.57;46.97;101488.72;5025671;28;45879;-76
2022/03/05 10:16:41;;;;;;;;;59.00;46.75;;;;;15.30;46.25;101466.47;5026736;28;45247;-74
2022/03/05 10:19:17;;;;;;;;;52.75;41.50;;;;;15.16;46.84;101478.56;5026375;28;45441;-73
2022/03/05 10:21:56;;;;;;;;;58.50;45.25;;;;;14.99;47.04;101500.03;5018158;28;46548;-73
2022/03/05 10:24:30;;;;;;;;;53.25;40.25;;;;;14.45;47.68;101443.00;5033949;28;45598;-74
2022/03/05 10:26:57;;;;;;;;;48.50;41.00;;;;;14.57;47.20;101472.03;5017560;28;45606;-73
2022/03/05 10:29:35;;;;;;;;;60.75;46.50;;;;;13.75;46.16;101375.84;5016925;28;45229;-72
2022/03/05 10:32:11;;;;;;;;;53.67;43.67;;;;;14.10;47.07;101486.53;5017351;28;46209;-71
2022/03/05 10:34:44;;;;;;;;;52.50;44.00;;;;;14.19;47.39;101499.84;5017478;28;45363;-72
2022/03/05 10:37:10;;;;;;;;;46.67;38.33;;;;;14.16;47.06;101484.09;5024323;28;45278;-74
2022/03/05 10:39:36;;;;;;;;;49.50;40.00;;;;;14.30;46.87;101496.13;5027541;28;45590;-73
2022/03/05 10:42:03;;;;;;;;;47.75;39.00;;;;;14.38;46.95;101495.38;5031188;28;45600;-74
2022/03/05 10:44:28;;;;;;;;;51.25;44.00;;;;;14.35;47.50;101490.31;5016410;28;45393;-72
2022/03/05 10:46:59;;;;;;;;;50.75;43.25;;;;;14.28;46.37;101495.44;5024705;28;45449;-73
2022/03/05 10:49:25;;;;;;;;;56.00;46.50;;;;;14.04;46.75;101496.00;5046642;28;45485;-73
2022/03/05 10:52:11;;;;;;;;;48.67;39.67;;;;;13.77;46.08;101493.28;5017049;28;46274;-73
2022/03/05 10:54:42;;;;;;;;;51.75;43.25;;;;;13.80;47.08;101496.50;5016823;28;45516;-73
2022/03/05 10:57:13;;;;;;;;;50.25;41.00;;;;;13.72;46.50;101499.06;5016444;28;45243;-73
2022/03/05 10:59:43;;;;;;;;;49.00;40.00;;;;;13.54;46.03;101501.66;5026093;28;45413;-73
2022/03/05 11:02:10;;;;;;;;;55.25;43.25;;;;;13.39;46.42;101477.22;5016212;28;48552;-73
2022/03/05 11:04:37;;;;;;;;;48.50;40.00;;;;;13.27;47.17;101472.22;5029354;28;45463;-72